• Join FlightAware (Why Join?)
  • Login
  • US Flag 
06:10AM EST


 

Airport Tracker/Info


-or-


 

Live Flight TrackerFlight Track Log ✈ N825SD ✈ 02-Jul-2014 ✈ KART - KILG

Flight Track Log - Related Links

Times and Time Zones

All times are in EDT time to prevent confusion due to time zone crossing. See the N825SD flight status page for this flight to view local times or setup timezone preferences in your user account.

Time Position Orientation Groundspeed Altitude Reporting Facility
EDT Latitude Longitude Course Direction KTS MPH feet Rate Location/Type
10:15AM 43.9328 -76.0278 174° South 164 189 2,700  Level Boston Center
10:16AM 43.8828 -76.0192 173° South 185 213 3,600 900 Climbing Boston Center
10:17AM 43.8761 -76.0217 195° South 174 200 4,000 1,380 Climbing Boston Center
10:17AM 43.8347 -76.0114 170° South 186 214 5,000 1,320 Climbing Boston Center
10:18AM 43.8250 -76.0139 191° South 181 208 5,400 1,260 Climbing Boston Center
10:18AM 43.7808 -76.0014 168° South 182 209 6,300 1,440 Climbing Boston Center
10:19AM 43.7633 -76.0042 187° South 181 208 6,900 1,260 Climbing Boston Center
10:19AM 43.7286 -75.9919 166° South 193 222 7,600 1,200 Climbing Boston Center
10:20AM 43.7097 -75.9964 190° South 185 213 8,200 1,440 Climbing Boston Center
10:20AM 43.6728 -75.9814 164° South 194 223 9,100 1,320 Climbing Boston Center
10:21AM 43.6581 -75.9875 197° South 188 216 9,600 900 Climbing Boston Center
10:21AM 43.6228 -75.9728 163° South 182 209 10,000 360 Climbing Boston Center
10:22AM 43.6064 -75.9831 204° Southwest 188 216 10,000 180 Level Boston Center
10:22AM 43.5656 -75.9678 165° South 217 250 10,200 540 Climbing Boston Center
10:23AM 43.5447 -75.9781 200° South 206 237 10,600 960 Climbing Boston Center
10:23AM 43.5044 -75.9614 163° South 209 241 11,200 960 Climbing Boston Center
10:24AM 43.4906 -75.9717 208° Southwest 198 228 11,600 660 Climbing Boston Center
10:24AM 43.4583 -75.9542 158° South 163 188 11,900 360 Climbing Boston Center
10:25AM 43.4453 -75.9647 210° Southwest 171 197 12,000 60 Climbing Boston Center
10:26AM 43.4039 -75.9472 163° South 175 201 12,000  Level Boston Center
10:26AM 43.3953 -75.9594 226° Southwest 175 201 12,000  Level Boston Center
10:27AM 43.3514 -75.9408 163° South 192 221 12,000  Level Boston Center
10:27AM 43.3419 -75.9542 226° Southwest 188 216 12,000  Level Boston Center
10:28AM 43.2989 -75.9344 162° South 196 226 12,000  Level Boston Center
10:28AM 43.2789 -75.9486 207° Southwest 189 217 12,000  Level Boston Center
10:29AM 43.2308 -75.9414 174° South 177 204 12,000  Level Boston Center
10:30AM 43.1808 -75.9333 173° South 178 205 12,000  Level Boston Center
10:31AM 43.1303 -75.9269 175° South 179 206 12,000  Level Boston Center
10:32AM 43.0775 -75.9197 174° South 189 217 12,000  Level Boston Center
10:33AM 43.0183 -75.9094 173° South 209 241 12,000  Level Boston Center
10:34AM 42.9586 -75.8989 173° South 214 246 12,000  Level Boston Center
10:35AM 42.8994 -75.8939 176° South 214 246 12,000  Level Boston Center
10:36AM 42.8272 -75.8872 176° South 216 249 12,000 60 Level Boston Center
10:37AM 42.7675 -75.8808 176° South 216 249 12,200 240 Climbing Boston Center
10:38AM 42.7114 -75.8756 176° South 207 238 12,500 120 Climbing Boston Center
10:39AM 42.6536 -75.8694 176° South 207 238 12,500  Level Boston Center
10:40AM 42.5925 -75.8628 175° South 214 246 12,500  Level Boston Center
10:41AM 42.5350 -75.8567 176° South 216 249 12,500  Level Boston Center
10:42AM 42.4739 -75.8511 176° South 216 249 12,500  Level Boston Center
10:43AM 42.4022 -75.8456 177° South 216 249 12,500  Level Boston Center
10:44AM 42.3414 -75.8403 176° South 217 250 12,500  Level Boston Center
10:45AM 42.2806 -75.8361 177° South 218 251 12,500  Level Boston Center
10:47AM 42.2197 -75.8317 177° South 218 251 12,500 -60 Level Boston Center
10:48AM 42.1583 -75.8272 177° South 219 252 12,400  Descending Boston Center
10:48AM 42.1094 -75.8250 178° South 221 254 12,500 60 Climbing New York Center
10:49AM 42.0531 -75.8261 181° South 221 254 12,500  Level New York Center
10:50AM 41.9889 -75.8214 177° South 221 254 12,500  Level New York Center
10:51AM 41.9267 -75.8139 175° South 221 254 12,500  Level New York Center
10:52AM 41.8664 -75.8092 177° South 216 249 12,500  Level New York Center
10:53AM 41.8111 -75.7911 166° South 222 255 12,500  Level New York Center
10:54AM 41.7536 -75.7672 163° South 229 264 12,500  Level New York Center
10:55AM 41.6839 -75.7453 167° South 229 264 12,500  Level New York Center
10:56AM 41.6236 -75.7408 177° South 229 264 12,500  Level New York Center
10:57AM 41.5614 -75.7364 177° South 229 264 12,500  Level New York Center
10:58AM 41.5053 -75.7322 177° South 224 258 12,500  Level New York Center
10:59AM 41.4428 -75.7303 179° South 224 258 12,500  Level New York Center
11:00AM 41.3828 -75.7258 177° South 224 258 12,500  Level New York Center
11:01AM 41.3225 -75.7214 177° South 224 258 12,500  Level New York Center
11:02AM 41.2600 -75.7197 179° South 224 258 12,500  Level New York Center
11:03AM 41.1936 -75.7147 177° South 224 258 12,500  Level New York Center
11:04AM 41.1314 -75.7103 177° South 224 258 12,500  Level New York Center
11:05AM 41.0689 -75.7056 177° South 229 264 12,500  Level New York Center
11:06AM 41.0131 -75.6989 175° South 229 264 12,500  Level New York Center
11:07AM 40.9422 -75.6964 178° South 229 264 12,500  Level New York Center
11:08AM 40.8800 -75.6892 175° South 229 264 12,500  Level New York Center
11:09AM 40.8261 -75.6853 177° South 229 264 12,500  Level New York Center
11:10AM 40.7556 -75.6775 175° South 229 264 12,500  Level New York Center
11:11AM 40.6931 -75.6731 177° South 229 264 12,500  Level New York Center
11:12AM 40.6308 -75.6686 177° South 229 264 12,500  Level New York Center
11:13AM 40.5747 -75.6672 179° South 234 269 12,500  Level New York Center
11:14AM 40.5039 -75.6650 179° South 234 269 12,500  Level New York Center
11:15AM 40.4417 -75.6606 177° South 234 269 12,500  Level New York Center
11:16AM 40.3792 -75.6561 177° South 234 269 12,500  Level New York Center
11:17AM 40.3208 -75.6547 179° South 234 269 12,500 -480 Level New York Center
11:18AM 40.2564 -75.6531 179° South 234 269 11,600 -1,320 Descending New York Center
11:19AM 40.1794 -75.6475 177° South 239 275 9,900 -1,500 Descending New York Center
11:22AM 40.0000 -75.6167 173° South 227 261 5,900 -1,560 Descending Philadelphia TRACON
11:23AM 39.9333 -75.6000 169° South 220 253 4,300 -1,800 Descending Philadelphia TRACON